createdAt,value
2022-08-18T00:00:46.936Z,0.00
2022-08-18T00:01:47.054Z,0.00
2022-08-18T00:03:00.578Z,0.00
2022-08-18T00:03:56.366Z,0.00
2022-08-18T00:04:49.742Z,0.00
2022-08-18T00:05:46.950Z,0.00
2022-08-18T00:06:46.951Z,0.00
2022-08-18T00:07:47.311Z,0.00
2022-08-18T00:08:46.965Z,0.00
2022-08-18T00:09:46.970Z,0.00
2022-08-18T00:10:46.971Z,0.00
2022-08-18T00:11:46.979Z,0.00
2022-08-18T00:12:46.978Z,0.00
2022-08-18T00:13:46.984Z,0.00
2022-08-18T00:14:46.984Z,0.00
2022-08-18T00:15:49.200Z,0.00
2022-08-18T00:16:46.991Z,0.00
2022-08-18T00:17:46.995Z,0.00
2022-08-18T00:18:47.000Z,0.00
2022-08-18T00:19:48.324Z,0.00
2022-08-18T00:20:47.008Z,0.00
2022-08-18T00:21:47.013Z,0.00
2022-08-18T00:22:47.041Z,0.00
2022-08-18T00:23:47.019Z,0.00
2022-08-18T00:24:47.795Z,0.00
2022-08-18T00:25:47.029Z,0.00
2022-08-18T00:26:47.031Z,0.00
2022-08-18T00:27:47.040Z,0.00
2022-08-18T00:28:47.039Z,0.00
2022-08-18T00:29:47.042Z,0.00
2022-08-18T00:30:47.052Z,0.00
2022-08-18T00:31:47.064Z,0.00
2022-08-18T00:32:47.075Z,0.00
2022-08-18T00:33:47.062Z,0.00
2022-08-18T00:34:47.058Z,0.00
2022-08-18T00:35:47.066Z,0.00
2022-08-18T00:36:47.070Z,0.00
2022-08-18T00:37:47.074Z,0.00
2022-08-18T00:38:47.078Z,0.00
2022-08-18T00:39:48.074Z,0.00
2022-08-18T00:40:47.081Z,0.00
2022-08-18T00:41:47.094Z,0.00
2022-08-18T00:42:47.106Z,0.00
2022-08-18T00:43:47.093Z,0.00
2022-08-18T00:44:47.096Z,0.00
2022-08-18T00:45:47.100Z,0.00
2022-08-18T00:46:47.103Z,0.00
2022-08-18T00:47:47.107Z,0.00
2022-08-18T00:48:48.386Z,0.00
2022-08-18T00:49:47.116Z,0.00
2022-08-18T00:50:47.121Z,0.00
2022-08-18T00:51:47.121Z,0.00
2022-08-18T00:52:47.133Z,0.00
2022-08-18T00:53:47.133Z,0.00
2022-08-18T00:54:47.131Z,0.00
2022-08-18T00:55:53.083Z,0.00
2022-08-18T00:56:47.139Z,0.00
2022-08-18T00:57:47.222Z,0.00
2022-08-18T00:58:47.152Z,0.00
2022-08-18T00:59:47.153Z,0.00
2022-08-18T01:00:47.225Z,0.00
2022-08-18T01:01:47.158Z,0.00
2022-08-18T01:02:47.168Z,0.00
2022-08-18T01:03:47.166Z,0.00
2022-08-18T01:04:47.168Z,0.00
2022-08-18T01:05:47.173Z,0.00
2022-08-18T01:06:47.175Z,0.00
2022-08-18T01:07:47.253Z,0.00
2022-08-18T01:08:47.180Z,0.00
2022-08-18T01:09:47.190Z,0.00
2022-08-18T01:10:47.191Z,0.00
2022-08-18T01:11:47.193Z,0.00
2022-08-18T01:12:47.375Z,0.00
2022-08-18T01:13:47.203Z,0.00
2022-08-18T01:14:47.206Z,0.00
2022-08-18T01:15:47.213Z,0.00
2022-08-18T01:16:56.609Z,0.00
2022-08-18T01:17:47.260Z,0.00
2022-08-18T01:18:47.222Z,0.00
2022-08-18T01:19:47.228Z,0.00
2022-08-18T01:20:47.229Z,0.00
2022-08-18T01:21:47.236Z,0.00
2022-08-18T01:22:47.238Z,0.00
2022-08-18T01:23:47.238Z,0.00
2022-08-18T01:24:47.242Z,0.00
2022-08-18T01:25:47.244Z,0.00
2022-08-18T01:26:47.248Z,0.00
2022-08-18T01:27:47.273Z,0.00
2022-08-18T01:28:47.255Z,0.00
2022-08-18T01:29:47.262Z,0.00
2022-08-18T01:30:47.264Z,0.00
2022-08-18T01:31:54.838Z,0.00
2022-08-18T01:32:47.263Z,0.00
2022-08-18T01:33:47.275Z,0.00
2022-08-18T01:34:47.277Z,0.00
2022-08-18T01:35:47.280Z,0.00
2022-08-18T01:36:47.283Z,0.00
2022-08-18T01:37:47.297Z,0.00
2022-08-18T01:38:47.291Z,0.00
2022-08-18T01:41:24.475Z,0.00
2022-08-18T01:41:27.544Z,0.00
2022-08-18T01:41:47.360Z,0.00
2022-08-18T01:42:47.305Z,0.00
2022-08-18T01:43:47.305Z,0.00
2022-08-18T01:44:47.311Z,0.00
2022-08-18T01:45:47.317Z,0.00
2022-08-18T01:46:47.318Z,0.00
2022-08-18T01:47:48.605Z,0.00
2022-08-18T01:48:47.321Z,0.00
2022-08-18T01:49:47.328Z,0.00
2022-08-18T01:50:47.334Z,0.00
2022-08-18T01:51:47.333Z,0.00
2022-08-18T01:52:47.338Z,0.00
2022-08-18T01:53:47.341Z,0.00
2022-08-18T01:54:47.348Z,0.00
2022-08-18T01:55:47.387Z,0.00
2022-08-18T01:56:47.354Z,0.00
2022-08-18T01:57:47.403Z,0.00
2022-08-18T01:58:47.357Z,0.00
2022-08-18T01:59:47.366Z,0.00
2022-08-18T02:00:47.367Z,0.00
2022-08-18T02:01:50.425Z,0.00
2022-08-18T02:02:47.369Z,0.00
2022-08-18T02:03:47.374Z,0.00
2022-08-18T02:04:47.377Z,0.00
2022-08-18T02:05:47.571Z,0.00
2022-08-18T02:06:47.918Z,0.00
2022-08-18T02:07:47.455Z,0.00
2022-08-18T02:08:49.838Z,0.00
2022-08-18T02:09:47.396Z,0.00
2022-08-18T02:10:47.403Z,0.00
2022-08-18T02:11:47.404Z,0.00
2022-08-18T02:12:47.411Z,0.00
2022-08-18T02:13:47.418Z,0.00
2022-08-18T02:14:47.413Z,0.00
2022-08-18T02:15:47.414Z,0.00
2022-08-18T02:16:47.422Z,0.00
2022-08-18T02:17:47.451Z,0.00
2022-08-18T02:18:48.929Z,0.00
2022-08-18T02:19:47.432Z,0.00
2022-08-18T02:20:47.436Z,0.00
2022-08-18T02:21:47.438Z,0.00
2022-08-18T02:22:47.441Z,0.00
2022-08-18T02:23:52.737Z,0.00
2022-08-18T02:24:47.445Z,0.00
2022-08-18T02:25:47.451Z,0.00
2022-08-18T02:26:47.453Z,0.00
2022-08-18T02:27:47.526Z,0.00
2022-08-18T02:28:47.458Z,0.00
2022-08-18T02:29:47.460Z,0.00
2022-08-18T02:30:47.465Z,0.00
2022-08-18T02:31:47.466Z,0.00
2022-08-18T02:32:47.471Z,0.00
2022-08-18T02:33:51.961Z,0.00
2022-08-18T02:34:47.474Z,0.00
2022-08-18T02:35:47.483Z,0.00
2022-08-18T02:36:47.482Z,0.00
2022-08-18T02:37:47.490Z,8.00
2022-08-18T02:38:54.717Z,8.00
2022-08-18T02:39:47.536Z,8.00
2022-08-18T02:40:47.498Z,8.00
2022-08-18T02:41:47.499Z,8.00
2022-08-18T02:42:47.503Z,8.00
2022-08-18T02:43:47.507Z,8.00
2022-08-18T02:44:47.513Z,8.00
2022-08-18T02:45:47.515Z,8.00
2022-08-18T02:46:47.517Z,8.00
2022-08-18T02:47:47.567Z,8.00
2022-08-18T02:48:47.523Z,8.00
2022-08-18T02:49:47.525Z,8.00
2022-08-18T02:50:47.530Z,8.00
2022-08-18T02:51:47.535Z,8.00
2022-08-18T02:52:47.539Z,8.00
2022-08-18T02:53:47.538Z,8.00
2022-08-18T02:54:47.542Z,8.00
2022-08-18T02:55:47.547Z,8.00
2022-08-18T02:56:47.548Z,8.00
2022-08-18T02:57:47.683Z,8.00
2022-08-18T02:58:47.551Z,8.00
2022-08-18T02:59:47.562Z,8.00
2022-08-18T03:00:47.561Z,8.00
2022-08-18T03:01:47.649Z,8.00
2022-08-18T03:02:47.570Z,8.00
2022-08-18T03:03:47.568Z,8.00
2022-08-18T03:04:47.579Z,8.00
2022-08-18T03:05:47.579Z,8.00
2022-08-18T03:06:47.578Z,8.00
2022-08-18T03:07:47.668Z,8.00
2022-08-18T03:08:47.584Z,8.00
2022-08-18T03:09:47.592Z,8.00
2022-08-18T03:10:47.606Z,8.00
2022-08-18T03:11:47.594Z,8.00
2022-08-18T03:12:47.601Z,8.00
2022-08-18T03:13:47.603Z,8.00
2022-08-18T03:14:47.609Z,8.00
2022-08-18T03:15:47.611Z,8.00
2022-08-18T03:16:54.441Z,8.00
2022-08-18T03:17:47.696Z,4.00
2022-08-18T03:18:47.617Z,4.00
2022-08-18T03:19:47.937Z,4.00
2022-08-18T03:20:47.619Z,4.00
2022-08-18T03:21:47.629Z,8.00
2022-08-18T03:22:47.632Z,8.00
2022-08-18T03:24:00.309Z,8.00
2022-08-18T03:24:47.632Z,8.00
2022-08-18T03:25:47.644Z,12.00
2022-08-18T03:26:47.643Z,8.00
2022-08-18T03:27:47.698Z,8.00
2022-08-18T03:28:47.645Z,4.00
2022-08-18T03:29:47.651Z,4.00
2022-08-18T03:30:47.655Z,4.00
2022-08-18T03:31:47.660Z,8.00
2022-08-18T03:32:47.658Z,8.00
2022-08-18T03:33:47.664Z,12.00
2022-08-18T03:34:47.678Z,12.00
2022-08-18T03:35:47.669Z,16.00
2022-08-18T03:36:47.686Z,16.00
2022-08-18T03:37:47.758Z,16.00
2022-08-18T03:38:47.682Z,16.00
2022-08-18T03:39:47.754Z,20.00
2022-08-18T03:40:47.684Z,24.00
2022-08-18T03:42:00.041Z,28.00
2022-08-18T03:42:47.693Z,32.00
2022-08-18T03:43:50.801Z,36.00
2022-08-18T03:44:47.699Z,40.00
2022-08-18T03:45:47.701Z,44.00
2022-08-18T03:46:47.703Z,48.00
2022-08-18T03:47:47.850Z,52.00
2022-08-18T03:48:47.715Z,60.00
2022-08-18T03:49:47.723Z,60.00
2022-08-18T03:50:47.717Z,68.00
2022-08-18T03:51:47.714Z,76.00
2022-08-18T03:52:47.722Z,76.00
2022-08-18T03:53:47.726Z,80.00
2022-08-18T03:54:47.726Z,92.00
2022-08-18T03:55:47.728Z,96.00
2022-08-18T03:56:47.733Z,100.00
2022-08-18T03:57:47.735Z,108.00
2022-08-18T03:58:47.738Z,112.00
2022-08-18T03:59:47.744Z,124.00
2022-08-18T04:00:47.746Z,132.00
2022-08-18T04:01:47.893Z,148.00
2022-08-18T04:02:47.755Z,160.00
2022-08-18T04:03:47.751Z,172.00
2022-08-18T04:04:47.758Z,188.00
2022-08-18T04:05:47.765Z,200.00
2022-08-18T04:06:47.761Z,220.00
2022-08-18T04:07:47.797Z,236.00
2022-08-18T04:08:47.772Z,252.00
2022-08-18T04:09:47.777Z,268.00
2022-08-18T04:10:47.778Z,288.00
2022-08-18T04:11:47.777Z,304.00
2022-08-18T04:12:47.778Z,324.00
2022-08-18T04:13:47.787Z,344.00
2022-08-18T04:14:48.027Z,364.00
2022-08-18T04:15:47.793Z,384.00
2022-08-18T04:16:47.792Z,408.00
2022-08-18T04:18:03.044Z,436.00
2022-08-18T04:18:47.799Z,456.00
2022-08-18T04:19:47.801Z,484.00
2022-08-18T04:20:56.228Z,508.00
2022-08-18T04:21:47.808Z,528.00
2022-08-18T04:22:47.817Z,552.00
2022-08-18T04:23:47.815Z,576.00
2022-08-18T04:24:47.817Z,596.00
2022-08-18T04:25:47.819Z,616.00
2022-08-18T04:26:47.824Z,640.00
2022-08-18T04:27:47.842Z,660.00
2022-08-18T04:28:47.829Z,684.00
2022-08-18T04:29:47.836Z,708.00
2022-08-18T04:30:47.832Z,732.00
2022-08-18T04:31:47.837Z,760.00
2022-08-18T04:32:47.841Z,780.00
2022-08-18T04:33:47.840Z,804.00
2022-08-18T04:34:47.848Z,824.00
2022-08-18T04:35:47.852Z,848.00
2022-08-18T04:36:47.853Z,868.00
2022-08-18T04:37:47.857Z,892.00
2022-08-18T04:38:47.857Z,908.00
2022-08-18T04:39:47.906Z,924.00
2022-08-18T04:40:47.865Z,948.00
2022-08-18T04:41:47.868Z,980.00
2022-08-18T04:42:47.871Z,1028.00
2022-08-18T04:43:47.871Z,1084.00
2022-08-18T04:44:47.871Z,1136.00
2022-08-18T04:45:47.877Z,1196.00
2022-08-18T04:46:47.891Z,1252.00
2022-08-18T04:47:47.912Z,1320.00
2022-08-18T04:48:47.886Z,1372.00
2022-08-18T04:49:47.887Z,1424.00
2022-08-18T04:50:47.899Z,1456.00
2022-08-18T04:52:36.965Z,1496.00
2022-08-18T04:52:47.898Z,1508.00
2022-08-18T04:53:47.954Z,1528.00
2022-08-18T04:54:47.904Z,1548.00
2022-08-18T04:55:47.908Z,1568.00
2022-08-18T04:56:47.908Z,1572.00
2022-08-18T04:57:47.986Z,1584.00
2022-08-18T04:58:47.915Z,1592.00
2022-08-18T04:59:47.918Z,1584.00
2022-08-18T05:00:47.981Z,1584.00
2022-08-18T05:01:48.353Z,1616.00
2022-08-18T05:02:47.928Z,1652.00
2022-08-18T05:03:50.295Z,1696.00
2022-08-18T05:04:47.935Z,1740.00
2022-08-18T05:05:47.940Z,1760.00
2022-08-18T05:06:47.940Z,1776.00
2022-08-18T05:07:48.040Z,1784.00
2022-08-18T05:08:47.948Z,1800.00
2022-08-18T05:09:47.952Z,1828.00
2022-08-18T05:10:47.956Z,1852.00
2022-08-18T05:11:47.954Z,1868.00
2022-08-18T05:12:47.959Z,1876.00
2022-08-18T05:13:47.959Z,1856.00
2022-08-18T05:14:47.968Z,1852.00
2022-08-18T05:16:09.467Z,1856.00
2022-08-18T05:16:49.698Z,1896.00
2022-08-18T05:17:50.339Z,1972.00
2022-08-18T05:18:47.974Z,2100.00
2022-08-18T05:19:48.484Z,2272.00
2022-08-18T05:20:47.984Z,2448.00
2022-08-18T05:21:50.632Z,2600.00
2022-08-18T05:22:47.985Z,2700.00
2022-08-18T05:23:47.990Z,2764.00
2022-08-18T05:24:47.997Z,2796.00
2022-08-18T05:25:47.999Z,2848.00
2022-08-18T05:26:48.002Z,2876.00
2022-08-18T05:27:48.058Z,2880.00
2022-08-18T05:28:48.012Z,2852.00
2022-08-18T05:29:51.436Z,2820.00
2022-08-18T05:30:48.022Z,2772.00
2022-08-18T05:31:48.177Z,2724.00
2022-08-18T05:32:50.337Z,2664.00
2022-08-18T05:33:48.025Z,2596.00
2022-08-18T05:34:48.024Z,2548.00
2022-08-18T05:35:48.036Z,2520.00
2022-08-18T05:36:48.030Z,2520.00
2022-08-18T05:37:48.207Z,2532.00
2022-08-18T05:38:48.048Z,2560.00
2022-08-18T05:39:48.081Z,2584.00
2022-08-18T05:40:48.045Z,2612.00
2022-08-18T05:41:48.046Z,2648.00
2022-08-18T05:42:48.054Z,2684.00
2022-08-18T05:43:51.965Z,2724.00
2022-08-18T05:44:48.064Z,2780.00
2022-08-18T05:45:48.061Z,2840.00
2022-08-18T05:46:48.068Z,2908.00
2022-08-18T05:47:48.092Z,2976.00
2022-08-18T05:48:48.076Z,3048.00
2022-08-18T05:49:48.080Z,3132.00
2022-08-18T05:50:48.084Z,3184.00
2022-08-18T05:51:48.082Z,3200.00
2022-08-18T05:52:48.085Z,3200.00
2022-08-18T05:53:48.089Z,3200.00
2022-08-18T05:54:48.095Z,3196.00
2022-08-18T05:55:48.264Z,3180.00
2022-08-18T05:56:48.136Z,3180.00
2022-08-18T05:57:48.171Z,3184.00
2022-08-18T05:58:48.106Z,3188.00
2022-08-18T05:59:48.186Z,3200.00
2022-08-18T06:00:48.116Z,3200.00
2022-08-18T06:01:48.117Z,3200.00
2022-08-18T06:02:48.221Z,3212.00
2022-08-18T06:03:48.122Z,3248.00
2022-08-18T06:04:48.126Z,3308.00
2022-08-18T06:05:48.134Z,3388.00
2022-08-18T06:06:48.223Z,3476.00
2022-08-18T06:07:48.140Z,3592.00
2022-08-18T06:08:48.149Z,3708.00
2022-08-18T06:09:48.149Z,3832.00
2022-08-18T06:10:48.151Z,3956.00
2022-08-18T06:11:48.147Z,4076.00
2022-08-18T06:12:48.157Z,4168.00
2022-08-18T06:13:48.156Z,4252.00
2022-08-18T06:14:48.170Z,4300.00
2022-08-18T06:15:48.163Z,4320.00
2022-08-18T06:16:48.169Z,4372.00
2022-08-18T06:17:48.310Z,4416.00
2022-08-18T06:18:48.175Z,4460.00
2022-08-18T06:19:48.177Z,4500.00
2022-08-18T06:20:48.185Z,4548.00
2022-08-18T06:21:48.183Z,4632.00
2022-08-18T06:22:52.557Z,4704.00
2022-08-18T06:23:48.195Z,4768.00
2022-08-18T06:24:48.205Z,4824.00
2022-08-18T06:25:48.204Z,4896.00
2022-08-18T06:26:48.211Z,4976.00
2022-08-18T06:27:48.305Z,5060.00
2022-08-18T06:28:48.220Z,5164.00
2022-08-18T06:29:48.224Z,5300.00
2022-08-18T06:30:48.222Z,5448.00
2022-08-18T06:31:48.227Z,5576.00
2022-08-18T06:32:48.230Z,5692.00
2022-08-18T06:33:48.239Z,5780.00
2022-08-18T06:34:48.239Z,5844.00
2022-08-18T06:35:48.504Z,5896.00
2022-08-18T06:36:48.248Z,5956.00
2022-08-18T06:37:48.342Z,6048.00
2022-08-18T06:38:48.257Z,6152.00
2022-08-18T06:39:48.364Z,6292.00
2022-08-18T06:40:48.266Z,6372.00
2022-08-18T06:41:48.266Z,6488.00
2022-08-18T06:42:48.271Z,6560.00
2022-08-18T06:43:48.277Z,6688.00
2022-08-18T06:44:48.279Z,6836.00
2022-08-18T06:45:48.278Z,6936.00
2022-08-18T06:46:48.284Z,7020.00
2022-08-18T06:47:48.355Z,7116.00
2022-08-18T06:48:48.298Z,7204.00
2022-08-18T06:49:48.299Z,7276.00
2022-08-18T06:50:48.308Z,7480.00
2022-08-18T06:51:48.306Z,7640.00
2022-08-18T06:52:48.316Z,7780.00
2022-08-18T06:53:48.318Z,7920.00
2022-08-18T06:54:51.251Z,7956.00
2022-08-18T06:55:48.327Z,7944.00
2022-08-18T06:56:48.339Z,7988.00
2022-08-18T06:57:48.366Z,8000.00
2022-08-18T06:58:52.687Z,8036.00
2022-08-18T06:59:48.347Z,8080.00
2022-08-18T07:00:49.162Z,8160.00
2022-08-18T07:01:48.356Z,8228.00
2022-08-18T07:02:48.365Z,8264.00
2022-08-18T07:03:48.363Z,8280.00
2022-08-18T07:04:48.378Z,8220.00
2022-08-18T07:05:48.375Z,8072.00
2022-08-18T07:06:48.381Z,7880.00
2022-08-18T07:07:48.384Z,7716.00
2022-08-18T07:08:48.388Z,7536.00
2022-08-18T07:09:48.393Z,7420.00
2022-08-18T07:10:48.412Z,7344.00
2022-08-18T07:11:48.406Z,7340.00
2022-08-18T07:12:48.412Z,7436.00
2022-08-18T07:13:58.623Z,7560.00
2022-08-18T07:14:48.426Z,7680.00
2022-08-18T07:15:48.423Z,7812.00
2022-08-18T07:16:59.024Z,7964.00
2022-08-18T07:17:48.433Z,8136.00
2022-08-18T07:18:48.441Z,8376.00
2022-08-18T07:19:48.448Z,8760.00
2022-08-18T07:20:48.451Z,9208.00
2022-08-18T07:21:48.458Z,9836.00
2022-08-18T07:22:48.462Z,11128.00
2022-08-18T07:24:07.705Z,12320.00
2022-08-18T07:24:48.474Z,16480.00
2022-08-18T07:25:48.481Z,17760.00
2022-08-18T07:26:48.489Z,18752.00
2022-08-18T07:27:48.555Z,17376.00
2022-08-18T07:28:48.499Z,19040.00
2022-08-18T07:29:48.518Z,13440.00
2022-08-18T07:31:13.615Z,13496.00
2022-08-18T07:31:48.513Z,11768.00
2022-08-18T07:32:48.519Z,13468.00
2022-08-18T07:33:48.525Z,11956.00
2022-08-18T07:34:48.538Z,11744.00
2022-08-18T07:35:48.534Z,13836.00
2022-08-18T07:36:48.547Z,12660.00
2022-08-18T07:37:48.648Z,12288.00
2022-08-18T07:38:48.556Z,11720.00
2022-08-18T07:39:48.744Z,11064.00
2022-08-18T07:40:48.576Z,10388.00
2022-08-18T07:41:48.571Z,10176.00
2022-08-18T07:42:54.034Z,9792.00
2022-08-18T07:43:48.586Z,9876.00
2022-08-18T07:44:48.596Z,10088.00
2022-08-18T07:45:48.598Z,10300.00
2022-08-18T07:46:48.605Z,10184.00
2022-08-18T07:47:48.724Z,9972.00
2022-08-18T07:48:48.622Z,10004.00
2022-08-18T07:50:15.818Z,9920.00
2022-08-18T07:50:58.651Z,9424.00
2022-08-18T07:51:53.280Z,9112.00
2022-08-18T07:52:48.657Z,8892.00
2022-08-18T07:53:54.488Z,8812.00
2022-08-18T07:54:50.138Z,8736.00
2022-08-18T07:55:48.668Z,8632.00
2022-08-18T07:56:48.680Z,8676.00
2022-08-18T07:57:48.682Z,8744.00
2022-08-18T07:58:48.695Z,8808.00
2022-08-18T07:59:48.697Z,8940.00
2022-08-18T08:00:58.735Z,8908.00
2022-08-18T08:01:48.761Z,8792.00
2022-08-18T08:02:50.053Z,8680.00
2022-08-18T08:03:48.725Z,8556.00
2022-08-18T08:04:48.732Z,8436.00
2022-08-18T08:05:48.738Z,8304.00
2022-08-18T08:07:12.839Z,8212.00
2022-08-18T08:07:48.750Z,8120.00
2022-08-18T08:08:48.756Z,7968.00
2022-08-18T08:09:51.874Z,7916.00
2022-08-18T08:10:48.775Z,8016.00
2022-08-18T08:11:48.780Z,8020.00
2022-08-18T08:12:48.790Z,8116.00
2022-08-18T08:13:55.842Z,8200.00
2022-08-18T08:14:48.806Z,8256.00
2022-08-18T08:15:48.807Z,8260.00
2022-08-18T08:16:48.820Z,8224.00
2022-08-18T08:17:48.967Z,8396.00
2022-08-18T08:18:48.829Z,8540.00
2022-08-18T08:20:02.740Z,8664.00
2022-08-18T08:20:48.843Z,8832.00
2022-08-18T08:21:52.917Z,8988.00
2022-08-18T08:22:48.865Z,9380.00
2022-08-18T08:23:48.863Z,9620.00
2022-08-18T08:24:48.872Z,9996.00
2022-08-18T08:25:48.880Z,10248.00
2022-08-18T08:26:48.889Z,10516.00
2022-08-18T08:27:48.893Z,10816.00
2022-08-18T08:28:53.699Z,11112.00
2022-08-18T08:29:48.909Z,11168.00
2022-08-18T08:30:48.919Z,11320.00
2022-08-18T08:31:48.923Z,11396.00
2022-08-18T08:32:48.930Z,11396.00
2022-08-18T08:33:48.941Z,11284.00
2022-08-18T08:34:48.951Z,11428.00
2022-08-18T08:35:50.647Z,11588.00
2022-08-18T08:36:48.962Z,11712.00
2022-08-18T08:37:48.970Z,11992.00
2022-08-18T08:38:48.984Z,12340.00
2022-08-18T08:39:49.078Z,12760.00
2022-08-18T08:40:48.998Z,13056.00
2022-08-18T08:41:48.999Z,13368.00
2022-08-18T08:42:49.011Z,13708.00
2022-08-18T08:43:49.014Z,14252.00
2022-08-18T08:44:58.887Z,14880.00
2022-08-18T08:45:49.027Z,15464.00
2022-08-18T08:46:49.042Z,16576.00
2022-08-18T08:47:49.044Z,19232.00
2022-08-18T08:48:49.052Z,23520.00
2022-08-18T08:49:54.792Z,27808.00
2022-08-18T08:50:49.081Z,31008.00
2022-08-18T08:51:49.088Z,30656.00
2022-08-18T08:52:49.090Z,30560.00
2022-08-18T08:53:49.099Z,36352.00
2022-08-18T08:54:49.106Z,39008.00
2022-08-18T08:55:49.112Z,40672.00
2022-08-18T08:56:49.124Z,42016.00
2022-08-18T08:57:49.132Z,45248.00
2022-08-18T08:58:49.145Z,43264.00
2022-08-18T08:59:49.155Z,37280.00
2022-08-18T09:00:49.159Z,37888.00
2022-08-18T09:01:49.220Z,40096.00
2022-08-18T09:02:49.289Z,44576.00
2022-08-18T09:03:49.190Z,41632.00
2022-08-18T09:04:54.798Z,41952.00
2022-08-18T09:05:53.420Z,41216.00
2022-08-18T09:06:49.218Z,40704.00
2022-08-18T09:07:49.239Z,39744.00
2022-08-18T09:08:49.246Z,41280.00
2022-08-18T09:09:49.259Z,38752.00
2022-08-18T09:10:49.268Z,40768.00
2022-08-18T09:11:49.282Z,38176.00
2022-08-18T09:12:49.304Z,41216.00
2022-08-18T09:13:49.304Z,35712.00
2022-08-18T09:14:49.324Z,37184.00
2022-08-18T09:15:49.330Z,41888.00
2022-08-18T09:16:49.352Z,38048.00
2022-08-18T09:17:49.358Z,38976.00
2022-08-18T09:18:49.373Z,42528.00
2022-08-18T09:19:49.381Z,42848.00
2022-08-18T09:20:49.718Z,42272.00
2022-08-18T09:21:49.406Z,38048.00
2022-08-18T09:22:49.418Z,33952.00
2022-08-18T09:23:49.434Z,32416.00
2022-08-18T09:24:51.094Z,39072.00
2022-08-18T09:25:49.457Z,39264.00
2022-08-18T09:26:49.476Z,42304.00
2022-08-18T09:28:10.011Z,43616.00
2022-08-18T09:28:49.520Z,42912.00
2022-08-18T09:29:49.522Z,45888.00
2022-08-18T09:30:51.470Z,47520.00
2022-08-18T09:31:49.546Z,46816.00
2022-08-18T09:32:49.598Z,48064.00
2022-08-18T09:33:49.576Z,56000.00
2022-08-18T09:34:49.587Z,55104.00
2022-08-18T09:36:49.620Z,42976.00
2022-08-18T09:37:50.372Z,45824.00
2022-08-18T09:38:49.652Z,50592.00
2022-08-18T09:39:54.380Z,61248.00
2022-08-18T09:41:02.499Z,53856.00
2022-08-18T09:41:49.767Z,57504.00
2022-08-18T09:42:50.564Z,59424.00
2022-08-18T09:43:49.729Z,56800.00
2022-08-18T09:44:49.745Z,59008.00
2022-08-18T09:45:49.758Z,54144.00
2022-08-18T09:46:49.778Z,52544.00
2022-08-18T09:47:49.792Z,52960.00
2022-08-18T09:48:49.810Z,54112.00
2022-08-18T09:49:51.261Z,51936.00
2022-08-18T09:50:49.839Z,49504.00
2022-08-18T09:51:49.862Z,47744.00
2022-08-18T09:52:50.055Z,47200.00
2022-08-18T09:53:49.901Z,44192.00
2022-08-18T09:54:49.912Z,52352.00
2022-08-18T09:55:52.027Z,53280.00
2022-08-18T09:57:49.976Z,55680.00
2022-08-18T09:58:50.121Z,57632.00
2022-08-18T09:59:50.005Z,55872.00
2022-08-18T10:00:50.036Z,56416.00
2022-08-18T10:02:50.059Z,53056.00
2022-08-18T10:03:50.082Z,52256.00
2022-08-18T10:04:50.101Z,59008.00
2022-08-18T10:05:50.117Z,64704.00
2022-08-18T10:07:50.193Z,67552.00
2022-08-18T10:08:50.180Z,67072.00
2022-08-18T10:09:50.205Z,68928.00
2022-08-18T10:11:01.371Z,69824.00
2022-08-18T10:11:50.894Z,68736.00
2022-08-18T10:12:50.477Z,67904.00
2022-08-18T10:13:50.281Z,70592.00
2022-08-18T10:14:50.299Z,65664.00
2022-08-18T10:15:50.322Z,58848.00
2022-08-18T10:17:15.969Z,52864.00
2022-08-18T10:17:50.433Z,60288.00
2022-08-18T10:18:50.388Z,60704.00
2022-08-18T10:19:50.407Z,62976.00
2022-08-18T10:20:50.432Z,62848.00
2022-08-18T10:21:50.453Z,58304.00
2022-08-18T10:22:50.560Z,57472.00
2022-08-18T10:23:58.430Z,61536.00
2022-08-18T10:24:50.520Z,59328.00
2022-08-18T10:25:50.546Z,73888.00
2022-08-18T10:26:54.941Z,79968.00
2022-08-18T10:27:50.589Z,82144.00
2022-08-18T10:28:51.851Z,83616.00
2022-08-18T10:29:50.627Z,88064.00
2022-08-18T10:30:57.510Z,91808.00
2022-08-18T10:31:50.679Z,86816.00
2022-08-18T10:32:52.209Z,77152.00
2022-08-18T10:33:50.725Z,73344.00
2022-08-18T10:34:52.335Z,78848.00
2022-08-18T10:35:50.774Z,84064.00
2022-08-18T10:36:50.798Z,89376.00
2022-08-18T10:37:50.910Z,85056.00
2022-08-18T10:38:50.849Z,83200.00
2022-08-18T10:39:50.901Z,83904.00
2022-08-18T10:40:50.893Z,84192.00
2022-08-18T10:41:51.303Z,80832.00
2022-08-18T10:42:53.420Z,85440.00
2022-08-18T10:43:58.181Z,85184.00
2022-08-18T10:44:50.995Z,86368.00
2022-08-18T10:46:24.409Z,85376.00
2022-08-18T10:46:51.056Z,80064.00
2022-08-18T10:47:51.075Z,78848.00
2022-08-18T10:48:51.098Z,80928.00
2022-08-18T10:49:51.123Z,83200.00
2022-08-18T10:50:51.157Z,85888.00
2022-08-18T10:51:59.128Z,84768.00
2022-08-18T10:52:51.412Z,77632.00
2022-08-18T10:53:51.440Z,73120.00
2022-08-18T10:54:54.604Z,69152.00
2022-08-18T10:55:51.542Z,73312.00
2022-08-18T10:56:51.308Z,80512.00
2022-08-18T10:57:51.348Z,80864.00
2022-08-18T10:58:51.363Z,76256.00
2022-08-18T10:59:54.642Z,73120.00
2022-08-18T11:00:51.417Z,74368.00
2022-08-18T11:01:51.444Z,69472.00
2022-08-18T11:02:52.291Z,75584.00
2022-08-18T11:03:55.706Z,74976.00
2022-08-18T11:04:58.840Z,64448.00
2022-08-18T11:05:51.549Z,59008.00
2022-08-18T11:06:51.573Z,63488.00
2022-08-18T11:07:52.091Z,66976.00
2022-08-18T11:08:55.382Z,67328.00
2022-08-18T11:10:04.387Z,74112.00
2022-08-18T11:11:32.474Z,69664.00
2022-08-18T11:11:52.529Z,65824.00
2022-08-18T11:12:51.748Z,66848.00
2022-08-18T11:13:51.767Z,68128.00
2022-08-18T11:14:51.798Z,66560.00
2022-08-18T11:15:51.820Z,68160.00
2022-08-18T11:16:53.901Z,70976.00
2022-08-18T11:17:51.876Z,75200.00
2022-08-18T11:19:51.930Z,89536.00
2022-08-18T11:20:51.957Z,91616.00
2022-08-18T11:21:52.109Z,85120.00
2022-08-18T11:22:52.338Z,77920.00
2022-08-18T11:23:52.039Z,77088.00
2022-08-18T11:24:52.073Z,80448.00
2022-08-18T11:25:52.102Z,86848.00
2022-08-18T11:26:53.020Z,89504.00
2022-08-18T11:27:52.154Z,88480.00
2022-08-18T11:28:52.180Z,84928.00
2022-08-18T11:29:52.201Z,83264.00
2022-08-18T11:30:52.240Z,82336.00
2022-08-18T11:31:52.801Z,80928.00
2022-08-18T11:32:53.441Z,76128.00
2022-08-18T11:33:52.319Z,76480.00
2022-08-18T11:34:53.208Z,77888.00
2022-08-18T11:35:52.377Z,82912.00
2022-08-18T11:36:52.404Z,81760.00
2022-08-18T11:37:53.668Z,77536.00
2022-08-18T11:38:52.462Z,74176.00
2022-08-18T11:39:52.559Z,48448.00
2022-08-18T11:41:09.037Z,19584.00
2022-08-18T11:41:52.662Z,28320.00
2022-08-18T11:42:53.003Z,26240.00
2022-08-18T11:43:52.602Z,34784.00
2022-08-18T11:44:52.630Z,20512.00
2022-08-18T11:45:52.661Z,31840.00
2022-08-18T11:46:52.686Z,62752.00
2022-08-18T11:47:52.721Z,22080.00
2022-08-18T11:48:53.465Z,25312.00
2022-08-18T11:49:53.668Z,22016.00
2022-08-18T11:51:52.827Z,14188.00
2022-08-18T11:52:53.868Z,16736.00
2022-08-18T11:53:58.220Z,14288.00
2022-08-18T11:54:54.135Z,12688.00
2022-08-18T11:56:52.955Z,12216.00
2022-08-18T11:57:52.986Z,12164.00
2022-08-18T11:58:53.009Z,12256.00
2022-08-18T12:00:00.537Z,11292.00
2022-08-18T12:00:53.066Z,10408.00
2022-08-18T12:01:53.087Z,9624.00
2022-08-18T12:02:53.263Z,9364.00
2022-08-18T12:03:53.141Z,9220.00
2022-08-18T12:04:53.488Z,9380.00
2022-08-18T12:05:54.159Z,9720.00
2022-08-18T12:06:53.216Z,10612.00
2022-08-18T12:07:57.709Z,12008.00
2022-08-18T12:08:58.952Z,15648.00
2022-08-18T12:10:16.686Z,13100.00
2022-08-18T12:10:53.311Z,10512.00
2022-08-18T12:11:53.330Z,10352.00
2022-08-18T12:12:53.693Z,10944.00
2022-08-18T12:13:53.385Z,10604.00
2022-08-18T12:14:57.243Z,10076.00
2022-08-18T12:15:53.431Z,9832.00
2022-08-18T12:16:54.098Z,9876.00
2022-08-18T12:17:54.047Z,10816.00
2022-08-18T12:18:53.732Z,17600.00
2022-08-18T12:19:53.521Z,21568.00
2022-08-18T12:20:53.541Z,21600.00
2022-08-18T12:21:53.567Z,22464.00
2022-08-18T12:22:53.723Z,25536.00
2022-08-18T12:23:53.607Z,23232.00
2022-08-18T12:24:53.629Z,19392.00
2022-08-18T12:25:53.655Z,18720.00
2022-08-18T12:26:53.671Z,17664.00
2022-08-18T12:27:53.702Z,14284.00